CLRO2: Verdigris River, Claremore, OK

Data processed at Tue May 21 2019 23:50


All information presented herein is the property of the government of the United States of America and may be revised or deleted at any time without prior notice.
Dissemination of this information without the expressed written consent of the Public Affairs Office, Tulsa District U.S. Army Corps of Engineers is strictly prohibited.
These data are gathered electronically and, as presented, have not undergone any form of quality control. These data are not guaranteed to be valid or correct.
Go to home page.
Go to station list.
Go to home page.

Upstream stations:

Downstream station:
Previous Day
Next Day
Current Day
    
SHEF ID:       CLRO2     Verdigris River near Claremore,
STATION TYPE:  
Regulating: Stage =    35.00, Flow =    54965

               PRECIP     STAGE  STAGE(2)  RIV-FLOW  BAT-LOAD
                   in        ft        ft       cfs      volt
              Ccp-Rev   Ccp-Rev   Ccp-Rev   Ccp-Rev   Ccp-Rev
(US/Central)
05/21 00:00      0.21     18.51     18.77     23226     12.73
05/21 01:00      0.42     21.09     21.47     27966     12.73
05/21 02:00      0.68     22.95     23.26     31444     12.73
05/21 03:00      0.04     24.16     24.54     33732     12.65
05/21 04:00      0.00     24.89     25.26     35121     12.65
05/21 05:00      0.02     25.42     25.73     36134     12.65
05/21 06:00      0.00     25.66     25.98     36594     12.65
05/21 07:00      0.17     25.74     26.05     36747     12.65
05/21 08:00      0.16     25.75     26.10     36766     12.65
05/21 09:00      0.15     25.92     26.17     37093     12.65
05/21 10:00      0.08     25.90     67.57     37054     12.65
05/21 11:00      0.00     25.98     26.29     37208     13.13
05/21 12:00      0.01     25.96     26.26     37170     13.68
05/21 13:00      0.01     25.84     26.11     36939     13.60
05/21 14:00      0.01     25.73     26.03     36728     13.68
05/21 15:00      0.00     25.54     25.82     36364     13.76
05/21 16:00      0.00     25.34     25.68     35981     13.84
05/21 17:00      0.00     25.25     25.47     35809     13.68
05/21 18:00      0.00     25.06     25.26     35446     13.76
05/21 19:00      0.00     24.79     25.13     34931     13.53
05/21 20:00      0.00     24.58     24.89     34530     13.37
05/21 21:00      0.00     24.34     24.65     34074     13.05
05/21 22:00      0.00     24.11     24.40     33637     12.89
05/21 23:00      0.00     23.85     24.16     33144     12.89